sensor_id;sensor_type;location;lat;lon;timestamp;pressure;altitude;pressure_sealevel;temperature
73685;BMP280;61985;51.070;14.064;2023-02-10T00:01:35;100266.53;;;-4.89
73685;BMP280;61985;51.070;14.064;2023-02-10T00:04:02;100271.31;;;-5.01
73685;BMP280;61985;51.070;14.064;2023-02-10T00:06:32;100266.38;;;-5.13
73685;BMP280;61985;51.070;14.064;2023-02-10T00:09:02;100271.94;;;-5.20
73685;BMP280;61985;51.070;14.064;2023-02-10T00:11:28;100259.09;;;-5.26
73685;BMP280;61985;51.070;14.064;2023-02-10T00:14:22;100252.81;;;-5.36
73685;BMP280;61985;51.070;14.064;2023-02-10T00:16:51;100262.03;;;-5.43
73685;BMP280;61985;51.070;14.064;2023-02-10T00:19:39;100254.44;;;-5.45
73685;BMP280;61985;51.070;14.064;2023-02-10T00:22:21;100253.13;;;-5.53
73685;BMP280;61985;51.070;14.064;2023-02-10T00:24:48;100257.09;;;-5.50
73685;BMP280;61985;51.070;14.064;2023-02-10T00:27:17;100258.66;;;-5.49
73685;BMP280;61985;51.070;14.064;2023-02-10T00:33:29;100257.47;;;-5.22
73685;BMP280;61985;51.070;14.064;2023-02-10T00:39:47;100270.63;;;-5.22
73685;BMP280;61985;51.070;14.064;2023-02-10T00:42:35;100279.09;;;-5.36
73685;BMP280;61985;51.070;14.064;2023-02-10T00:45:34;100273.81;;;-5.31
73685;BMP280;61985;51.070;14.064;2023-02-10T00:48:11;100278.34;;;-5.47
73685;BMP280;61985;51.070;14.064;2023-02-10T00:50:58;100269.97;;;-5.59
73685;BMP280;61985;51.070;14.064;2023-02-10T00:56:19;100274.91;;;-5.52
73685;BMP280;61985;51.070;14.064;2023-02-10T00:58:54;100276.25;;;-5.55
73685;BMP280;61985;51.070;14.064;2023-02-10T01:01:23;100276.25;;;-5.55
73685;BMP280;61985;51.070;14.064;2023-02-10T01:03:54;100267.09;;;-5.73
73685;BMP280;61985;51.070;14.064;2023-02-10T01:06:22;100281.03;;;-5.83
73685;BMP280;61985;51.070;14.064;2023-02-10T01:08:51;100282.34;;;-5.85
73685;BMP280;61985;51.070;14.064;2023-02-10T01:11:20;100277.09;;;-5.85
73685;BMP280;61985;51.070;14.064;2023-02-10T01:14:14;100266.34;;;-5.89
73685;BMP280;61985;51.070;14.064;2023-02-10T01:16:51;100269.47;;;-5.87
73685;BMP280;61985;51.070;14.064;2023-02-10T01:19:19;100272.41;;;-5.93
73685;BMP280;61985;51.070;14.064;2023-02-10T01:22:01;100270.00;;;-5.85
73685;BMP280;61985;51.070;14.064;2023-02-10T01:24:34;100286.31;;;-5.93
73685;BMP280;61985;51.070;14.064;2023-02-10T01:27:09;100278.44;;;-5.93
73685;BMP280;61985;51.070;14.064;2023-02-10T01:29:52;100276.06;;;-6.00
73685;BMP280;61985;51.070;14.064;2023-02-10T01:32:36;100273.44;;;-5.94
73685;BMP280;61985;51.070;14.064;2023-02-10T01:35:09;100277.91;;;-5.95
73685;BMP280;61985;51.070;14.064;2023-02-10T01:37:40;100289.97;;;-5.94
73685;BMP280;61985;51.070;14.064;2023-02-10T01:40:06;100287.09;;;-5.92
73685;BMP280;61985;51.070;14.064;2023-02-10T01:42:41;100290.97;;;-5.59
73685;BMP280;61985;51.070;14.064;2023-02-10T01:47:56;100294.44;;;-6.00
73685;BMP280;61985;51.070;14.064;2023-02-10T01:53:14;100291.31;;;-6.07
73685;BMP280;61985;51.070;14.064;2023-02-10T01:55:44;100288.44;;;-6.10
73685;BMP280;61985;51.070;14.064;2023-02-10T01:58:26;100299.97;;;-5.96
73685;BMP280;61985;51.070;14.064;2023-02-10T02:00:58;100287.59;;;-5.85
73685;BMP280;61985;51.070;14.064;2023-02-10T02:06:36;100276.59;;;-6.03
73685;BMP280;61985;51.070;14.064;2023-02-10T02:09:09;100279.47;;;-6.09
73685;BMP280;61985;51.070;14.064;2023-02-10T02:14:31;100280.78;;;-6.07
73685;BMP280;61985;51.070;14.064;2023-02-10T02:17:09;100287.09;;;-5.92
73685;BMP280;61985;51.070;14.064;2023-02-10T02:29:29;100290.00;;;-6.20
73685;BMP280;61985;51.070;14.064;2023-02-10T02:32:24;100297.31;;;-6.06
73685;BMP280;61985;51.070;14.064;2023-02-10T02:37:30;100296.00;;;-6.40
73685;BMP280;61985;51.070;14.064;2023-02-10T02:39:56;100293.13;;;-6.38
73685;BMP280;61985;51.070;14.064;2023-02-10T02:42:25;100299.16;;;-6.38
73685;BMP280;61985;51.070;14.064;2023-02-10T02:44:54;100293.13;;;-6.38
73685;BMP280;61985;51.070;14.064;2023-02-10T02:51:08;100291.25;;;-6.33
73685;BMP280;61985;51.070;14.064;2023-02-10T03:00:58;100304.63;;;-6.60
73685;BMP280;61985;51.070;14.064;2023-02-10T03:03:33;100296.50;;;-6.58
73685;BMP280;61985;51.070;14.064;2023-02-10T03:06:02;100307.25;;;-6.60
73685;BMP280;61985;51.070;14.064;2023-02-10T03:08:29;100299.09;;;-6.58
73685;BMP280;61985;51.070;14.064;2023-02-10T03:10:56;100287.81;;;-6.64
73685;BMP280;61985;51.070;14.064;2023-02-10T03:13:21;100293.06;;;-6.64
73685;BMP280;61985;51.070;14.064;2023-02-10T03:15:46;100291.25;;;-6.58
73685;BMP280;61985;51.070;14.064;2023-02-10T03:18:12;100295.16;;;-6.61
73685;BMP280;61985;51.070;14.064;2023-02-10T03:20:38;100301.47;;;-6.62
73685;BMP280;61985;51.070;14.064;2023-02-10T03:23:04;100291.75;;;-6.61
73685;BMP280;61985;51.070;14.064;2023-02-10T03:25:29;100303.06;;;-6.45
73685;BMP280;61985;51.070;14.064;2023-02-10T03:27:54;100298.06;;;-6.47
73685;BMP280;61985;51.070;14.064;2023-02-10T03:30:20;100297.78;;;-6.56
73685;BMP280;61985;51.070;14.064;2023-02-10T03:32:45;100294.13;;;-6.50
73685;BMP280;61985;51.070;14.064;2023-02-10T03:35:11;100299.38;;;-6.50
73685;BMP280;61985;51.070;14.064;2023-02-10T03:37:37;100306.47;;;-6.45
73685;BMP280;61985;51.070;14.064;2023-02-10T03:40:02;100301.00;;;-6.38
73685;BMP280;61985;51.070;14.064;2023-02-10T03:42:28;100306.22;;;-6.33
73685;BMP280;61985;51.070;14.064;2023-02-10T03:44:53;100301.75;;;-6.33
73685;BMP280;61985;51.070;14.064;2023-02-10T03:47:18;100312.28;;;-6.27
73685;BMP280;61985;51.070;14.064;2023-02-10T03:49:44;100313.81;;;-6.26
73685;BMP280;61985;51.070;14.064;2023-02-10T03:52:09;100314.66;;;-6.21
73685;BMP280;61985;51.070;14.064;2023-02-10T03:54:34;100308.09;;;-6.23
73685;BMP280;61985;51.070;14.064;2023-02-10T03:56:59;100305.72;;;-6.25
73685;BMP280;61985;51.070;14.064;2023-02-10T03:59:25;100301.78;;;-6.17
73685;BMP280;61985;51.070;14.064;2023-02-10T04:01:50;100306.81;;;-6.10
73685;BMP280;61985;51.070;14.064;2023-02-10T04:04:16;100305.47;;;-6.03
73685;BMP280;61985;51.070;14.064;2023-02-10T04:06:41;100310.44;;;-5.91
73685;BMP280;61985;51.070;14.064;2023-02-10T04:09:06;100312.31;;;-5.81
73685;BMP280;61985;51.070;14.064;2023-02-10T04:11:32;100305.97;;;-5.70
73685;BMP280;61985;51.070;14.064;2023-02-10T04:13:57;100296.25;;;-5.59
73685;BMP280;61985;51.070;14.064;2023-02-10T04:16:22;100306.47;;;-5.47
73685;BMP280;61985;51.070;14.064;2023-02-10T04:18:52;100310.88;;;-5.37
73685;BMP280;61985;51.070;14.064;2023-02-10T04:21:18;100312.06;;;-5.04
73685;BMP280;61985;51.070;14.064;2023-02-10T04:23:43;100318.38;;;-5.00
73685;BMP280;61985;51.070;14.064;2023-02-10T04:26:08;100315.72;;;-4.95
73685;BMP280;61985;51.070;14.064;2023-02-10T04:28:34;100318.34;;;-4.95
73685;BMP280;61985;51.070;14.064;2023-02-10T04:31:00;100330.97;;;-4.91
73685;BMP280;61985;51.070;14.064;2023-02-10T04:33:25;100326.97;;;-4.84
73685;BMP280;61985;51.070;14.064;2023-02-10T04:35:53;100330.91;;;-4.81
73685;BMP280;61985;51.070;14.064;2023-02-10T04:38:19;100335.06;;;-4.70
73685;BMP280;61985;51.070;14.064;2023-02-10T04:40:45;100340.03;;;-4.63
73685;BMP280;61985;51.070;14.064;2023-02-10T04:43:11;100342.94;;;-4.60
73685;BMP280;61985;51.070;14.064;2023-02-10T04:45:37;100348.19;;;-4.60
73685;BMP280;61985;51.070;14.064;2023-02-10T04:48:02;100354.75;;;-4.57
73685;BMP280;61985;51.070;14.064;2023-02-10T04:50:28;100357.13;;;-4.55
73685;BMP280;61985;51.070;14.064;2023-02-10T04:52:53;100358.13;;;-4.51
73685;BMP280;61985;51.070;14.064;2023-02-10T04:55:18;100356.50;;;-4.42
73685;BMP280;61985;51.070;14.064;2023-02-10T04:57:44;100358.03;;;-4.36
73685;BMP280;61985;51.070;14.064;2023-02-10T05:00:10;100359.06;;;-4.32
73685;BMP280;61985;51.070;14.064;2023-02-10T05:02:36;100367.44;;;-4.25
73685;BMP280;61985;51.070;14.064;2023-02-10T05:05:02;100369.28;;;-4.20
73685;BMP280;61985;51.070;14.064;2023-02-10T05:07:28;100372.91;;;-4.16
73685;BMP280;61985;51.070;14.064;2023-02-10T05:09:53;100382.34;;;-4.10
73685;BMP280;61985;51.070;14.064;2023-02-10T05:12:18;100385.97;;;-4.00
73685;BMP280;61985;51.070;14.064;2023-02-10T05:14:44;100389.13;;;-3.98
73685;BMP280;61985;51.070;14.064;2023-02-10T05:17:09;100386.72;;;-3.95
73685;BMP280;61985;51.070;14.064;2023-02-10T05:19:34;100393.53;;;-3.94
73685;BMP280;61985;51.070;14.064;2023-02-10T05:22:00;100397.41;;;-3.86
73685;BMP280;61985;51.070;14.064;2023-02-10T05:24:25;100395.59;;;-3.85
73685;BMP280;61985;51.070;14.064;2023-02-10T05:26:51;100400.81;;;-3.80
73685;BMP280;61985;51.070;14.064;2023-02-10T05:29:16;100395.78;;;-3.77
73685;BMP280;61985;51.070;14.064;2023-02-10T05:31:41;100391.53;;;-3.73
73685;BMP280;61985;51.070;14.064;2023-02-10T05:34:07;100392.09;;;-3.76
73685;BMP280;61985;51.070;14.064;2023-02-10T05:36:32;100396.31;;;-3.75
73685;BMP280;61985;51.070;14.064;2023-02-10T05:38:58;100396.31;;;-3.75
73685;BMP280;61985;51.070;14.064;2023-02-10T05:41:42;100398.38;;;-3.71
73685;BMP280;61985;51.070;14.064;2023-02-10T05:44:07;100403.81;;;-3.63
73685;BMP280;61985;51.070;14.064;2023-02-10T05:46:32;100394.25;;;-3.53
73685;BMP280;61985;51.070;14.064;2023-02-10T05:48:58;100406.59;;;-3.49
73685;BMP280;61985;51.070;14.064;2023-02-10T05:51:23;100411.66;;;-3.52
73685;BMP280;61985;51.070;14.064;2023-02-10T05:53:49;100408.25;;;-3.53
73685;BMP280;61985;51.070;14.064;2023-02-10T05:56:14;100419.75;;;-3.44
73685;BMP280;61985;51.070;14.064;2023-02-10T05:58:39;100414.13;;;-3.37
73685;BMP280;61985;51.070;14.064;2023-02-10T06:01:06;100410.34;;;-3.26
73685;BMP280;61985;51.070;14.064;2023-02-10T06:03:32;100418.22;;;-3.21
73685;BMP280;61985;51.070;14.064;2023-02-10T06:05:58;100417.97;;;-3.24
73685;BMP280;61985;51.070;14.064;2023-02-10T06:08:23;100422.75;;;-3.26
73685;BMP280;61985;51.070;14.064;2023-02-10T06:10:48;100425.91;;;-3.29
73685;BMP280;61985;51.070;14.064;2023-02-10T06:13:14;100425.16;;;-3.30
73685;BMP280;61985;51.070;14.064;2023-02-10T06:15:39;100430.13;;;-3.28
73685;BMP280;61985;51.070;14.064;2023-02-10T06:18:04;100422.22;;;-3.28
73685;BMP280;61985;51.070;14.064;2023-02-10T06:20:30;100425.16;;;-3.30
73685;BMP280;61985;51.070;14.064;2023-02-10T06:22:55;100422.22;;;-3.28
73685;BMP280;61985;51.070;14.064;2023-02-10T06:25:20;100429.88;;;-3.27
73685;BMP280;61985;51.070;14.064;2023-02-10T06:27:46;100432.75;;;-3.23
73685;BMP280;61985;51.070;14.064;2023-02-10T06:30:12;100439.31;;;-3.21
73685;BMP280;61985;51.070;14.064;2023-02-10T06:32:37;100455.34;;;-3.17
73685;BMP280;61985;51.070;14.064;2023-02-10T06:35:03;100454.56;;;-3.17
73685;BMP280;61985;51.070;14.064;2023-02-10T06:37:29;100451.94;;;-3.17
73685;BMP280;61985;51.070;14.064;2023-02-10T06:40:05;100458.75;;;-3.16
73685;BMP280;61985;51.070;14.064;2023-02-10T06:42:31;100455.56;;;-3.13
73685;BMP280;61985;51.070;14.064;2023-02-10T06:44:57;100456.09;;;-3.11
73685;BMP280;61985;51.070;14.064;2023-02-10T06:55:23;100461.22;;;-3.01
73685;BMP280;61985;51.070;14.064;2023-02-10T06:58:11;100460.69;;;-2.98
73685;BMP280;61985;51.070;14.064;2023-02-10T07:00:47;100473.84;;;-2.93
73685;BMP280;61985;51.070;14.064;2023-02-10T07:03:15;100475.34;;;-2.87
73685;BMP280;61985;51.070;14.064;2023-02-10T07:05:41;100471.91;;;-2.87
73685;BMP280;61985;51.070;14.064;2023-02-10T07:08:08;100465.78;;;-2.82
73685;BMP280;61985;51.070;14.064;2023-02-10T07:20:59;100480.44;;;-2.71
73685;BMP280;61985;51.070;14.064;2023-02-10T07:26:06;100485.69;;;-2.66
73685;BMP280;61985;51.070;14.064;2023-02-10T07:28:35;100497.81;;;-2.65
73685;BMP280;61985;51.070;14.064;2023-02-10T07:31:01;100497.22;;;-2.62
73685;BMP280;61985;51.070;14.064;2023-02-10T07:33:26;100493.44;;;-2.56
73685;BMP280;61985;51.070;14.064;2023-02-10T07:35:53;100495.81;;;-2.54
73685;BMP280;61985;51.070;14.064;2023-02-10T07:38:18;100488.91;;;-2.50
73685;BMP280;61985;51.070;14.064;2023-02-10T07:40:44;100481.72;;;-2.44
73685;BMP280;61985;51.070;14.064;2023-02-10T07:43:10;100497.97;;;-2.37
73685;BMP280;61985;51.070;14.064;2023-02-10T07:45:35;100489.75;;;-2.36
73685;BMP280;61985;51.070;14.064;2023-02-10T07:48:00;100493.16;;;-2.30
73685;BMP280;61985;51.070;14.064;2023-02-10T07:50:26;100501.00;;;-2.25
73685;BMP280;61985;51.070;14.064;2023-02-10T07:52:51;100497.22;;;-2.19
73685;BMP280;61985;51.070;14.064;2023-02-10T07:55:18;100495.56;;;-2.15
73685;BMP280;61985;51.070;14.064;2023-02-10T07:57:43;100486.59;;;-2.13
73685;BMP280;61985;51.070;14.064;2023-02-10T08:00:09;100496.31;;;-2.09
73685;BMP280;61985;51.070;14.064;2023-02-10T08:02:34;100498.13;;;-2.09
73685;BMP280;61985;51.070;14.064;2023-02-10T08:05:00;100496.00;;;-2.07
73685;BMP280;61985;51.070;14.064;2023-02-10T08:07:25;100498.06;;;-2.04
73685;BMP280;61985;51.070;14.064;2023-02-10T08:09:51;100517.56;;;-2.00
73685;BMP280;61985;51.070;14.064;2023-02-10T08:12:16;100512.78;;;-1.98
73685;BMP280;61985;51.070;14.064;2023-02-10T08:14:41;100503.72;;;-1.92
73685;BMP280;61985;51.070;14.064;2023-02-10T08:17:07;100507.28;;;-1.83
73685;BMP280;61985;51.070;14.064;2023-02-10T08:19:32;100513.84;;;-1.80
73685;BMP280;61985;51.070;14.064;2023-02-10T08:21:58;100508.69;;;-1.71
73685;BMP280;61985;51.070;14.064;2023-02-10T08:24:24;100509.47;;;-1.71
73685;BMP280;61985;51.070;14.064;2023-02-10T08:26:49;100506.25;;;-1.68
73685;BMP280;61985;51.070;14.064;2023-02-10T08:29:14;100506.97;;;-1.62
73685;BMP280;61985;51.070;14.064;2023-02-10T08:31:40;100502.66;;;-1.58
73685;BMP280;61985;51.070;14.064;2023-02-10T08:34:05;100502.88;;;-1.54
73685;BMP280;61985;51.070;14.064;2023-02-10T08:36:31;100519.72;;;-1.50
73685;BMP280;61985;51.070;14.064;2023-02-10T08:38:56;100516.22;;;-1.46
73685;BMP280;61985;51.070;14.064;2023-02-10T08:41:22;100525.13;;;-1.41
73685;BMP280;61985;51.070;14.064;2023-02-10T08:43:47;100519.75;;;-1.36
73685;BMP280;61985;51.070;14.064;2023-02-10T08:46:13;100515.47;;;-1.32
73685;BMP280;61985;51.070;14.064;2023-02-10T08:48:38;100512.38;;;-1.20
73685;BMP280;61985;51.070;14.064;2023-02-10T08:51:11;100525.31;;;-1.19
73685;BMP280;61985;51.070;14.064;2023-02-10T08:53:37;100528.31;;;-1.12
73685;BMP280;61985;51.070;14.064;2023-02-10T08:56:06;100522.56;;;-1.14
73685;BMP280;61985;51.070;14.064;2023-02-10T08:58:31;100533.03;;;-1.09
73685;BMP280;61985;51.070;14.064;2023-02-10T09:00:57;100538.84;;;-1.06
73685;BMP280;61985;51.070;14.064;2023-02-10T09:03:24;100544.13;;;-1.06
73685;BMP280;61985;51.070;14.064;2023-02-10T09:05:50;100533.25;;;-1.05
73685;BMP280;61985;51.070;14.064;2023-02-10T09:08:16;100530.69;;;-0.96
73685;BMP280;61985;51.070;14.064;2023-02-10T09:10:43;100543.16;;;-0.83
73685;BMP280;61985;51.070;14.064;2023-02-10T09:13:08;100544.81;;;-0.73
73685;BMP280;61985;51.070;14.064;2023-02-10T09:15:38;100559.63;;;-0.72
73685;BMP280;61985;51.070;14.064;2023-02-10T09:18:05;100564.81;;;-0.67
73685;BMP280;61985;51.070;14.064;2023-02-10T09:20:31;100560.81;;;-0.64
73685;BMP280;61985;51.070;14.064;2023-02-10T09:22:56;100559.53;;;-0.67
73685;BMP280;61985;51.070;14.064;2023-02-10T09:25:21;100562.88;;;-0.61
73685;BMP280;61985;51.070;14.064;2023-02-10T09:27:47;100562.56;;;-0.60
73685;BMP280;61985;51.070;14.064;2023-02-10T09:30:13;100565.69;;;-0.58
73685;BMP280;61985;51.070;14.064;2023-02-10T09:32:38;100566.50;;;-0.57
73685;BMP280;61985;51.070;14.064;2023-02-10T09:35:04;100565.31;;;-0.51
73685;BMP280;61985;51.070;14.064;2023-02-10T09:37:29;100573.16;;;-0.46
73685;BMP280;61985;51.070;14.064;2023-02-10T09:39:54;100566.19;;;-0.42
73685;BMP280;61985;51.070;14.064;2023-02-10T09:42:33;100568.84;;;-0.42
73685;BMP280;61985;51.070;14.064;2023-02-10T09:45:05;100570.59;;;-0.37
73685;BMP280;61985;51.070;14.064;2023-02-10T09:47:56;100570.78;;;-0.33
73685;BMP280;61985;51.070;14.064;2023-02-10T09:50:42;100568.34;;;-0.30
73685;BMP280;61985;51.070;14.064;2023-02-10T09:53:19;100567.38;;;-0.34
73685;BMP280;61985;51.070;14.064;2023-02-10T09:55:54;100562.84;;;-0.33
73685;BMP280;61985;51.070;14.064;2023-02-10T09:58:42;100579.25;;;-0.31
73685;BMP280;61985;51.070;14.064;2023-02-10T10:01:24;100583.06;;;-0.38
73685;BMP280;61985;51.070;14.064;2023-02-10T10:03:56;100575.69;;;-0.41
73685;BMP280;61985;51.070;14.064;2023-02-10T10:06:30;100576.19;;;-0.39
73685;BMP280;61985;51.070;14.064;2023-02-10T10:14:02;100574.31;;;-0.38
73685;BMP280;61985;51.070;14.064;2023-02-10T10:16:43;100568.66;;;-0.31
73685;BMP280;61985;51.070;14.064;2023-02-10T10:19:22;100565.50;;;-0.33
73685;BMP280;61985;51.070;14.064;2023-02-10T10:30:18;100568.06;;;-0.28
73685;BMP280;61985;51.070;14.064;2023-02-10T10:32:47;100571.22;;;-0.26
73685;BMP280;61985;51.070;14.064;2023-02-10T10:35:21;100560.31;;;-0.25
73685;BMP280;61985;51.070;14.064;2023-02-10T10:37:47;100557.38;;;-0.23
73685;BMP280;61985;51.070;14.064;2023-02-10T10:40:27;100558.63;;;-0.21
73685;BMP280;61985;51.070;14.064;2023-02-10T10:42:56;100568.03;;;-0.14
73685;BMP280;61985;51.070;14.064;2023-02-10T10:46:05;100561.19;;;-0.15
73685;BMP280;61985;51.070;14.064;2023-02-10T10:48:31;100573.53;;;-0.11
73685;BMP280;61985;51.070;14.064;2023-02-10T10:50:59;100571.66;;;-0.10
73685;BMP280;61985;51.070;14.064;2023-02-10T10:53:36;100572.94;;;-0.08
73685;BMP280;61985;51.070;14.064;2023-02-10T10:56:05;100569.50;;;-0.08
73685;BMP280;61985;51.070;14.064;2023-02-10T10:58:37;100567.53;;;-0.03
73685;BMP280;61985;51.070;14.064;2023-02-10T11:01:03;100566.44;;;-0.02
73685;BMP280;61985;51.070;14.064;2023-02-10T11:03:29;100565.81;;;0.02
73685;BMP280;61985;51.070;14.064;2023-02-10T11:06:07;100565.72;;;0.07
73685;BMP280;61985;51.070;14.064;2023-02-10T11:08:40;100568.06;;;0.08
73685;BMP280;61985;51.070;14.064;2023-02-10T11:11:10;100579.94;;;0.11
73685;BMP280;61985;51.070;14.064;2023-02-10T11:13:39;100577.78;;;0.13
73685;BMP280;61985;51.070;14.064;2023-02-10T11:16:10;100582.50;;;0.16
73685;BMP280;61985;51.070;14.064;2023-02-10T11:18:37;100583.56;;;0.15
73685;BMP280;61985;51.070;14.064;2023-02-10T11:21:08;100575.00;;;0.18
73685;BMP280;61985;51.070;14.064;2023-02-10T11:23:49;100582.19;;;0.17
73685;BMP280;61985;51.070;14.064;2023-02-10T11:26:21;100582.50;;;0.16
73685;BMP280;61985;51.070;14.064;2023-02-10T11:28:47;100580.63;;;0.16
73685;BMP280;61985;51.070;14.064;2023-02-10T11:34:00;100579.72;;;0.21
73685;BMP280;61985;51.070;14.064;2023-02-10T11:36:37;100576.94;;;0.26
73685;BMP280;61985;51.070;14.064;2023-02-10T11:39:17;100582.16;;;0.31
73685;BMP280;61985;51.070;14.064;2023-02-10T11:41:44;100579.63;;;0.35
73685;BMP280;61985;51.070;14.064;2023-02-10T11:44:30;100582.59;;;0.33
73685;BMP280;61985;51.070;14.064;2023-02-10T11:47:01;100578.25;;;0.38
73685;BMP280;61985;51.070;14.064;2023-02-10T11:49:29;100577.75;;;0.35
73685;BMP280;61985;51.070;14.064;2023-02-10T11:52:00;100574.03;;;0.36
73685;BMP280;61985;51.070;14.064;2023-02-10T11:54:27;100574.19;;;0.40
73685;BMP280;61985;51.070;14.064;2023-02-10T12:10:16;100578.59;;;0.45
73685;BMP280;61985;51.070;14.064;2023-02-10T12:15:38;100567.09;;;0.49
73685;BMP280;61985;51.070;14.064;2023-02-10T12:19:23;100560.41;;;0.52
73685;BMP280;61985;51.070;14.064;2023-02-10T12:24:33;100561.16;;;0.75
73685;BMP280;61985;51.070;14.064;2023-02-10T12:27:10;100555.28;;;0.87
73685;BMP280;61985;51.070;14.064;2023-02-10T12:29:44;100551.44;;;0.93
73685;BMP280;61985;51.070;14.064;2023-02-10T12:35:35;100552.00;;;1.21
73685;BMP280;61985;51.070;14.064;2023-02-10T12:38:25;100550.16;;;1.31
73685;BMP280;61985;51.070;14.064;2023-02-10T12:41:22;100541.41;;;1.30
73685;BMP280;61985;51.070;14.064;2023-02-10T12:44:48;100543.41;;;1.33
73685;BMP280;61985;51.070;14.064;2023-02-10T12:49:18;100545.44;;;1.36
73685;BMP280;61985;51.070;14.064;2023-02-10T12:55:02;100533.41;;;1.39
73685;BMP280;61985;51.070;14.064;2023-02-10T12:57:45;100521.22;;;1.38
73685;BMP280;61985;51.070;14.064;2023-02-10T13:00:28;100532.00;;;1.50
73685;BMP280;61985;51.070;14.064;2023-02-10T13:03:01;100530.78;;;1.56
73685;BMP280;61985;51.070;14.064;2023-02-10T13:05:36;100540.97;;;1.63
73685;BMP280;61985;51.070;14.064;2023-02-10T13:08:05;100535.94;;;1.53
73685;BMP280;61985;51.070;14.064;2023-02-10T13:10:39;100525.31;;;1.53
73685;BMP280;61985;51.070;14.064;2023-02-10T13:13:28;100522.81;;;1.65
73685;BMP280;61985;51.070;14.064;2023-02-10T13:15:58;100522.38;;;1.80
73685;BMP280;61985;51.070;14.064;2023-02-10T13:18:29;100522.69;;;1.88
73685;BMP280;61985;51.070;14.064;2023-02-10T13:23:53;100519.22;;;1.70
73685;BMP280;61985;51.070;14.064;2023-02-10T13:29:33;100509.66;;;1.95
73685;BMP280;61985;51.070;14.064;2023-02-10T13:34:32;100511.38;;;1.99
73685;BMP280;61985;51.070;14.064;2023-02-10T13:37:07;100514.06;;;1.91
73685;BMP280;61985;51.070;14.064;2023-02-10T13:39:35;100503.72;;;1.98
73685;BMP280;61985;51.070;14.064;2023-02-10T13:42:30;100502.94;;;2.06
73685;BMP280;61985;51.070;14.064;2023-02-10T13:47:38;100501.66;;;2.21
73685;BMP280;61985;51.070;14.064;2023-02-10T13:58:17;100501.66;;;2.30
73685;BMP280;61985;51.070;14.064;2023-02-10T14:00:50;100501.22;;;2.28
73685;BMP280;61985;51.070;14.064;2023-02-10T14:06:03;100494.63;;;2.16
73685;BMP280;61985;51.070;14.064;2023-02-10T14:13:42;100492.16;;;2.11
73685;BMP280;61985;51.070;14.064;2023-02-10T14:18:40;100488.22;;;2.09
73685;BMP280;61985;51.070;14.064;2023-02-10T14:21:09;100495.13;;;2.10
73685;BMP280;61985;51.070;14.064;2023-02-10T14:23:38;100492.63;;;2.05
73685;BMP280;61985;51.070;14.064;2023-02-10T14:26:16;100490.75;;;2.05
73685;BMP280;61985;51.070;14.064;2023-02-10T14:28:48;100481.81;;;2.01
73685;BMP280;61985;51.070;14.064;2023-02-10T14:31:23;100492.63;;;2.05
73685;BMP280;61985;51.070;14.064;2023-02-10T14:34:02;100491.50;;;2.06
73685;BMP280;61985;51.070;14.064;2023-02-10T14:36:28;100501.53;;;2.00
73685;BMP280;61985;51.070;14.064;2023-02-10T14:38:55;100489.97;;;1.96
73685;BMP280;61985;51.070;14.064;2023-02-10T14:41:22;100495.91;;;1.93
73685;BMP280;61985;51.070;14.064;2023-02-10T14:43:49;100495.00;;;1.89
73685;BMP280;61985;51.070;14.064;2023-02-10T14:46:41;100491.88;;;1.87
73685;BMP280;61985;51.070;14.064;2023-02-10T14:49:17;100483.25;;;1.90
73685;BMP280;61985;51.070;14.064;2023-02-10T14:51:44;100491.88;;;1.87
73685;BMP280;61985;51.070;14.064;2023-02-10T14:54:21;100487.81;;;1.80
73685;BMP280;61985;51.070;14.064;2023-02-10T14:56:57;100490.00;;;1.78
73685;BMP280;61985;51.070;14.064;2023-02-10T14:59:29;100485.78;;;1.77
73685;BMP280;61985;51.070;14.064;2023-02-10T15:01:55;100482.16;;;1.73
73685;BMP280;61985;51.070;14.064;2023-02-10T15:04:23;100475.94;;;1.69
73685;BMP280;61985;51.070;14.064;2023-02-10T15:06:56;100483.59;;;1.71
73685;BMP280;61985;51.070;14.064;2023-02-10T15:09:31;100476.06;;;1.64
73685;BMP280;61985;51.070;14.064;2023-02-10T15:12:02;100475.59;;;1.62
73685;BMP280;61985;51.070;14.064;2023-02-10T15:15:00;100472.63;;;1.63
73685;BMP280;61985;51.070;14.064;2023-02-10T15:17:40;100465.59;;;1.59
73685;BMP280;61985;51.070;14.064;2023-02-10T15:23:12;100466.38;;;1.51
73685;BMP280;61985;51.070;14.064;2023-02-10T15:25:38;100468.25;;;1.59
73685;BMP280;61985;51.070;14.064;2023-02-10T15:30:57;100452.78;;;1.43
73685;BMP280;61985;51.070;14.064;2023-02-10T15:33:29;100459.66;;;1.44
73685;BMP280;61985;51.070;14.064;2023-02-10T15:36:24;100458.72;;;1.40
73685;BMP280;61985;51.070;14.064;2023-02-10T15:41:31;100458.72;;;1.40
73685;BMP280;61985;51.070;14.064;2023-02-10T15:43:58;100452.00;;;1.34
73685;BMP280;61985;51.070;14.064;2023-02-10T15:46:24;100452.63;;;1.31
73685;BMP280;61985;51.070;14.064;2023-02-10T15:48:50;100450.78;;;1.32
73685;BMP280;61985;51.070;14.064;2023-02-10T15:51:24;100454.38;;;1.27
73685;BMP280;61985;51.070;14.064;2023-02-10T15:53:51;100455.75;;;1.24
73685;BMP280;61985;51.070;14.064;2023-02-10T15:56:20;100448.56;;;1.16
73685;BMP280;61985;51.070;14.064;2023-02-10T15:58:45;100458.06;;;1.08
73685;BMP280;61985;51.070;14.064;2023-02-10T16:01:11;100454.00;;;1.02
73685;BMP280;61985;51.070;14.064;2023-02-10T16:03:36;100462.88;;;0.98
73685;BMP280;61985;51.070;14.064;2023-02-10T16:06:02;100462.69;;;0.94
73685;BMP280;61985;51.070;14.064;2023-02-10T16:08:27;100453.50;;;0.92
73685;BMP280;61985;51.070;14.064;2023-02-10T16:10:54;100456.94;;;0.92
73685;BMP280;61985;51.070;14.064;2023-02-10T16:13:19;100452.69;;;0.91
73685;BMP280;61985;51.070;14.064;2023-02-10T16:15:46;100451.78;;;0.87
73685;BMP280;61985;51.070;14.064;2023-02-10T16:18:16;100457.69;;;0.84
73685;BMP280;61985;51.070;14.064;2023-02-10T16:20:43;100458.78;;;0.83
73685;BMP280;61985;51.070;14.064;2023-02-10T16:23:11;100460.66;;;0.82
73685;BMP280;61985;51.070;14.064;2023-02-10T16:25:37;100465.16;;;0.82
73685;BMP280;61985;51.070;14.064;2023-02-10T16:28:02;100467.69;;;0.87
73685;BMP280;61985;51.070;14.064;2023-02-10T16:30:28;100466.59;;;0.88
73685;BMP280;61985;51.070;14.064;2023-02-10T16:32:54;100469.53;;;0.86
73685;BMP280;61985;51.070;14.064;2023-02-10T16:35:20;100471.91;;;0.88